sensor_id;sensor_type;location;lat;lon;timestamp;pressure;altitude;pressure_sealevel;temperature;humidity
250;BME280;109;19.806;-70.704;2022-10-16T00:01:27;101272.97;;;27.12;63.43
250;BME280;109;19.806;-70.704;2022-10-16T00:04:02;101282.69;;;26.99;63.86
250;BME280;109;19.806;-70.704;2022-10-16T00:06:30;101272.88;;;26.98;63.64
250;BME280;109;19.806;-70.704;2022-10-16T00:09:03;101280.50;;;27.05;63.10
250;BME280;109;19.806;-70.704;2022-10-16T00:11:32;101271.94;;;26.99;62.83
250;BME280;109;19.806;-70.704;2022-10-16T00:14:12;101278.09;;;27.01;63.12
250;BME280;109;19.806;-70.704;2022-10-16T00:16:46;101271.84;;;27.00;63.04
250;BME280;109;19.806;-70.704;2022-10-16T00:19:12;101272.78;;;26.99;63.33
250;BME280;109;19.806;-70.704;2022-10-16T00:21:45;101278.59;;;27.07;62.63
250;BME280;109;19.806;-70.704;2022-10-16T00:24:11;101281.72;;;27.00;62.49
250;BME280;109;19.806;-70.704;2022-10-16T00:26:45;101282.44;;;27.03;62.25
250;BME280;109;19.806;-70.704;2022-10-16T00:29:26;101285.38;;;26.99;62.39
250;BME280;109;19.806;-70.704;2022-10-16T00:31:52;101285.13;;;27.03;62.15
250;BME280;109;19.806;-70.704;2022-10-16T00:34:32;101282.69;;;26.99;62.27
250;BME280;109;19.806;-70.704;2022-10-16T00:36:58;101294.53;;;26.95;62.40
250;BME280;109;19.806;-70.704;2022-10-16T00:39:38;101288.59;;;26.88;61.80
250;BME280;109;19.806;-70.704;2022-10-16T00:42:04;101300.63;;;26.98;61.94
250;BME280;109;19.806;-70.704;2022-10-16T00:44:54;101295.97;;;26.84;61.54
250;BME280;109;19.806;-70.704;2022-10-16T00:47:32;101301.31;;;26.84;61.80
250;BME280;109;19.806;-70.704;2022-10-16T00:50:24;101301.09;;;26.89;61.47
250;BME280;109;19.806;-70.704;2022-10-16T00:53:00;101305.47;;;26.92;61.53
250;BME280;109;19.806;-70.704;2022-10-16T00:55:41;101298.72;;;26.83;61.72
250;BME280;109;19.806;-70.704;2022-10-16T00:58:07;101301.56;;;26.80;61.74
250;BME280;109;19.806;-70.704;2022-10-16T01:00:48;101304.00;;;26.84;61.26
250;BME280;109;19.806;-70.704;2022-10-16T01:03:32;101301.81;;;26.93;61.17
250;BME280;109;19.806;-70.704;2022-10-16T01:06:36;101296.44;;;26.93;61.37
250;BME280;109;19.806;-70.704;2022-10-16T01:09:47;101287.97;;;27.00;61.28
250;BME280;109;19.806;-70.704;2022-10-16T01:12:42;101289.34;;;26.92;61.80
250;BME280;109;19.806;-70.704;2022-10-16T01:18:08;101292.63;;;26.97;60.97
250;BME280;109;19.806;-70.704;2022-10-16T01:27:13;101307.16;;;26.93;61.02
250;BME280;109;19.806;-70.704;2022-10-16T01:30:07;101309.22;;;26.88;61.45
250;BME280;109;19.806;-70.704;2022-10-16T01:32:56;101312.50;;;26.77;61.16
250;BME280;109;19.806;-70.704;2022-10-16T01:35:43;101307.66;;;26.83;61.10
250;BME280;109;19.806;-70.704;2022-10-16T01:38:34;101313.03;;;26.83;61.39
250;BME280;109;19.806;-70.704;2022-10-16T01:44:03;101326.28;;;26.86;60.94
250;BME280;109;19.806;-70.704;2022-10-16T01:46:48;101335.44;;;26.82;61.78
250;BME280;109;19.806;-70.704;2022-10-16T01:49:34;101335.66;;;26.62;61.46
250;BME280;109;19.806;-70.704;2022-10-16T01:52:12;101333.56;;;26.67;61.71
250;BME280;109;19.806;-70.704;2022-10-16T01:54:54;101336.91;;;26.72;61.61
250;BME280;109;19.806;-70.704;2022-10-16T01:57:24;101340.22;;;26.77;61.68
250;BME280;109;19.806;-70.704;2022-10-16T02:00:10;101338.47;;;26.76;61.78
250;BME280;109;19.806;-70.704;2022-10-16T02:02:47;101336.66;;;26.77;61.43
250;BME280;109;19.806;-70.704;2022-10-16T02:05:55;101338.47;;;26.76;61.42
250;BME280;109;19.806;-70.704;2022-10-16T02:08:30;101341.56;;;26.69;61.26
250;BME280;109;19.806;-70.704;2022-10-16T02:11:11;101346.13;;;26.67;61.67
250;BME280;109;19.806;-70.704;2022-10-16T02:14:09;101346.69;;;26.73;61.50
250;BME280;109;19.806;-70.704;2022-10-16T02:16:46;101342.28;;;26.72;61.78
250;BME280;109;19.806;-70.704;2022-10-16T02:19:27;101336.97;;;26.71;61.48
250;BME280;109;19.806;-70.704;2022-10-16T02:22:00;101341.25;;;26.75;61.30
250;BME280;109;19.806;-70.704;2022-10-16T02:25:15;101335.81;;;26.76;61.33
250;BME280;109;19.806;-70.704;2022-10-16T02:28:35;101338.47;;;26.76;61.76
250;BME280;109;19.806;-70.704;2022-10-16T02:30:58;101339.50;;;26.74;61.69
250;BME280;109;19.806;-70.704;2022-10-16T02:33:40;101339.66;;;26.71;61.30
250;BME280;109;19.806;-70.704;2022-10-16T02:36:22;101339.22;;;26.63;61.84
250;BME280;109;19.806;-70.704;2022-10-16T02:39:04;101342.50;;;26.68;61.65
250;BME280;109;19.806;-70.704;2022-10-16T02:41:31;101338.00;;;26.68;61.76
250;BME280;109;19.806;-70.704;2022-10-16T02:44:12;101342.59;;;26.66;61.24
250;BME280;109;19.806;-70.704;2022-10-16T02:46:38;101343.88;;;26.59;61.21
250;BME280;109;19.806;-70.704;2022-10-16T02:49:18;101344.03;;;26.56;61.53
250;BME280;109;19.806;-70.704;2022-10-16T02:51:44;101339.53;;;26.57;61.38
250;BME280;109;19.806;-70.704;2022-10-16T02:54:25;101341.34;;;26.56;61.33
250;BME280;109;19.806;-70.704;2022-10-16T02:56:51;101343.06;;;26.57;61.73
250;BME280;109;19.806;-70.704;2022-10-16T02:59:31;101342.22;;;26.57;61.91
250;BME280;109;19.806;-70.704;2022-10-16T03:01:57;101349.38;;;26.56;61.96
250;BME280;109;19.806;-70.704;2022-10-16T03:04:37;101344.16;;;26.53;61.81
250;BME280;109;19.806;-70.704;2022-10-16T03:07:04;101349.09;;;26.45;62.14
250;BME280;109;19.806;-70.704;2022-10-16T03:09:45;101352.47;;;26.48;61.93
250;BME280;109;19.806;-70.704;2022-10-16T03:12:11;101343.78;;;26.43;62.23
250;BME280;109;19.806;-70.704;2022-10-16T03:14:51;101347.41;;;26.42;61.55
250;BME280;109;19.806;-70.704;2022-10-16T03:17:17;101349.41;;;26.39;61.78
250;BME280;109;19.806;-70.704;2022-10-16T03:19:57;101343.22;;;26.37;62.23
250;BME280;109;19.806;-70.704;2022-10-16T03:22:23;101340.13;;;26.27;61.86
250;BME280;109;19.806;-70.704;2022-10-16T03:25:11;101336.34;;;26.31;61.74
250;BME280;109;19.806;-70.704;2022-10-16T03:27:51;101335.47;;;26.31;62.02
250;BME280;109;19.806;-70.704;2022-10-16T03:30:31;101341.00;;;26.28;61.72
250;BME280;109;19.806;-70.704;2022-10-16T03:32:57;101334.59;;;26.30;62.20
250;BME280;109;19.806;-70.704;2022-10-16T03:35:37;101334.53;;;26.32;61.83
250;BME280;109;19.806;-70.704;2022-10-16T03:38:04;101337.13;;;26.33;61.53
250;BME280;109;19.806;-70.704;2022-10-16T03:40:51;101347.88;;;26.33;61.71
250;BME280;109;19.806;-70.704;2022-10-16T03:43:24;101350.63;;;26.32;61.99
250;BME280;109;19.806;-70.704;2022-10-16T03:46:04;101354.25;;;26.31;61.47
250;BME280;109;19.806;-70.704;2022-10-16T03:48:44;101348.50;;;26.21;61.57
250;BME280;109;19.806;-70.704;2022-10-16T03:51:11;101342.81;;;26.27;61.67
250;BME280;109;19.806;-70.704;2022-10-16T03:53:51;101338.31;;;26.28;61.58
250;BME280;109;19.806;-70.704;2022-10-16T03:56:17;101340.03;;;26.29;62.03
250;BME280;109;19.806;-70.704;2022-10-16T03:58:58;101338.22;;;26.29;61.80
250;BME280;109;19.806;-70.704;2022-10-16T04:01:24;101337.44;;;26.27;61.68
250;BME280;109;19.806;-70.704;2022-10-16T04:04:04;101340.22;;;26.26;61.75
250;BME280;109;19.806;-70.704;2022-10-16T04:06:30;101346.53;;;26.25;62.00
250;BME280;109;19.806;-70.704;2022-10-16T04:09:10;101345.66;;;26.24;61.96
250;BME280;109;19.806;-70.704;2022-10-16T04:11:36;101343.84;;;26.25;62.32
250;BME280;109;19.806;-70.704;2022-10-16T04:14:16;101338.47;;;26.25;61.77
250;BME280;109;19.806;-70.704;2022-10-16T04:16:42;101338.63;;;26.22;62.30
250;BME280;109;19.806;-70.704;2022-10-16T04:19:22;101353.63;;;26.26;62.37
250;BME280;109;19.806;-70.704;2022-10-16T04:21:48;101351.81;;;26.26;62.26
250;BME280;109;19.806;-70.704;2022-10-16T04:24:34;101352.06;;;26.22;62.21
250;BME280;109;19.806;-70.704;2022-10-16T04:27:14;101352.69;;;26.27;62.03
250;BME280;109;19.806;-70.704;2022-10-16T04:29:55;101351.97;;;26.23;61.98
250;BME280;109;19.806;-70.704;2022-10-16T04:32:28;101349.28;;;26.23;62.04
250;BME280;109;19.806;-70.704;2022-10-16T04:35:08;101345.47;;;26.27;61.94
250;BME280;109;19.806;-70.704;2022-10-16T04:37:35;101341.00;;;26.28;62.11
250;BME280;109;19.806;-70.704;2022-10-16T04:40:15;101336.81;;;26.22;62.47
250;BME280;109;19.806;-70.704;2022-10-16T04:42:42;101341.31;;;26.22;62.17
250;BME280;109;19.806;-70.704;2022-10-16T04:45:22;101335.81;;;26.25;62.57
250;BME280;109;19.806;-70.704;2022-10-16T04:47:48;101324.13;;;26.26;62.59
250;BME280;109;19.806;-70.704;2022-10-16T04:50:29;101331.13;;;26.28;62.42
250;BME280;109;19.806;-70.704;2022-10-16T04:53:05;101324.13;;;26.26;61.99
250;BME280;109;19.806;-70.704;2022-10-16T04:55:45;101322.69;;;26.19;62.00
250;BME280;109;19.806;-70.704;2022-10-16T04:58:11;101322.75;;;26.17;62.62
250;BME280;109;19.806;-70.704;2022-10-16T05:00:51;101326.47;;;26.14;62.39
250;BME280;109;19.806;-70.704;2022-10-16T05:03:17;101326.56;;;26.13;62.35
250;BME280;109;19.806;-70.704;2022-10-16T05:05:58;101329.78;;;26.20;62.76
250;BME280;109;19.806;-70.704;2022-10-16T05:08:24;101320.34;;;26.12;62.67
250;BME280;109;19.806;-70.704;2022-10-16T05:11:04;101310.06;;;26.21;62.29
250;BME280;109;19.806;-70.704;2022-10-16T05:13:30;101314.56;;;26.20;62.22
250;BME280;109;19.806;-70.704;2022-10-16T05:16:10;101310.53;;;26.11;62.77
250;BME280;109;19.806;-70.704;2022-10-16T05:18:57;101309.41;;;26.15;62.27
250;BME280;109;19.806;-70.704;2022-10-16T05:21:31;101308.41;;;26.18;62.40
250;BME280;109;19.806;-70.704;2022-10-16T05:24:18;101300.41;;;26.16;62.98
250;BME280;109;19.806;-70.704;2022-10-16T05:26:58;101297.59;;;26.20;62.96
250;BME280;109;19.806;-70.704;2022-10-16T05:29:38;101310.13;;;26.19;62.47
250;BME280;109;19.806;-70.704;2022-10-16T05:32:04;101303.19;;;26.15;62.62
250;BME280;109;19.806;-70.704;2022-10-16T05:34:44;101292.56;;;26.13;62.46
250;BME280;109;19.806;-70.704;2022-10-16T05:37:12;101299.16;;;26.06;62.48
250;BME280;109;19.806;-70.704;2022-10-16T05:39:53;101293.50;;;26.12;62.85
250;BME280;109;19.806;-70.704;2022-10-16T05:42:19;101288.91;;;26.14;62.94
250;BME280;109;19.806;-70.704;2022-10-16T05:44:59;101286.41;;;26.11;62.61
250;BME280;109;19.806;-70.704;2022-10-16T05:47:25;101283.16;;;26.05;62.88
250;BME280;109;19.806;-70.704;2022-10-16T05:50:05;101272.13;;;26.11;62.58
250;BME280;109;19.806;-70.704;2022-10-16T05:52:31;101268.56;;;26.10;62.86
250;BME280;109;19.806;-70.704;2022-10-16T05:55:12;101268.72;;;26.07;62.96
250;BME280;109;19.806;-70.704;2022-10-16T05:57:39;101268.00;;;26.04;62.52
250;BME280;109;19.806;-70.704;2022-10-16T06:00:18;101260.81;;;26.04;63.06
250;BME280;109;19.806;-70.704;2022-10-16T06:02:44;101264.22;;;26.08;62.43
250;BME280;109;19.806;-70.704;2022-10-16T06:05:24;101259.00;;;26.05;62.89
250;BME280;109;19.806;-70.704;2022-10-16T06:07:52;101255.38;;;26.06;62.64
250;BME280;109;19.806;-70.704;2022-10-16T06:10:33;101259.06;;;26.03;62.53
250;BME280;109;19.806;-70.704;2022-10-16T06:13:06;101247.41;;;26.04;62.60
250;BME280;109;19.806;-70.704;2022-10-16T06:15:46;101250.00;;;26.06;62.62
250;BME280;109;19.806;-70.704;2022-10-16T06:18:12;101244.28;;;26.13;62.83
250;BME280;109;19.806;-70.704;2022-10-16T06:20:52;101244.34;;;26.12;62.92
250;BME280;109;19.806;-70.704;2022-10-16T06:23:18;101235.66;;;26.07;63.11
250;BME280;109;19.806;-70.704;2022-10-16T06:26:07;101244.72;;;26.04;62.94
250;BME280;109;19.806;-70.704;2022-10-16T06:28:47;101243.31;;;25.97;62.65
250;BME280;109;19.806;-70.704;2022-10-16T06:31:15;101238.03;;;25.96;63.04
250;BME280;109;19.806;-70.704;2022-10-16T06:33:55;101231.94;;;25.92;62.69
250;BME280;109;19.806;-70.704;2022-10-16T06:36:37;101240.94;;;25.91;63.23
250;BME280;109;19.806;-70.704;2022-10-16T06:39:17;101236.28;;;25.95;62.62
250;BME280;109;19.806;-70.704;2022-10-16T06:41:43;101236.13;;;25.98;62.48
250;BME280;109;19.806;-70.704;2022-10-16T06:44:30;101236.06;;;25.99;62.91
250;BME280;109;19.806;-70.704;2022-10-16T06:47:04;101232.75;;;25.94;62.33
250;BME280;109;19.806;-70.704;2022-10-16T06:49:44;101233.53;;;25.96;62.51
250;BME280;109;19.806;-70.704;2022-10-16T06:52:10;101226.28;;;25.98;62.36
250;BME280;109;19.806;-70.704;2022-10-16T06:54:50;101227.06;;;26.00;62.41
250;BME280;109;19.806;-70.704;2022-10-16T06:57:17;101220.19;;;25.95;61.91
250;BME280;109;19.806;-70.704;2022-10-16T06:59:58;101225.41;;;25.98;61.76
250;BME280;109;19.806;-70.704;2022-10-16T07:02:24;101222.09;;;25.93;62.08
250;BME280;109;19.806;-70.704;2022-10-16T07:05:11;101218.38;;;25.95;61.85
250;BME280;109;19.806;-70.704;2022-10-16T07:07:44;101213.09;;;25.94;61.87
250;BME280;109;19.806;-70.704;2022-10-16T07:10:24;101212.44;;;25.89;61.44
250;BME280;109;19.806;-70.704;2022-10-16T07:12:50;101212.63;;;25.86;60.99
250;BME280;109;19.806;-70.704;2022-10-16T07:15:30;101213.31;;;25.89;60.88
250;BME280;109;19.806;-70.704;2022-10-16T07:17:56;101209.78;;;25.89;61.29
250;BME280;109;19.806;-70.704;2022-10-16T07:20:36;101208.91;;;25.88;61.48
250;BME280;109;19.806;-70.704;2022-10-16T07:23:03;101206.88;;;25.93;60.97
250;BME280;109;19.806;-70.704;2022-10-16T07:25:56;101206.22;;;25.88;61.08
250;BME280;109;19.806;-70.704;2022-10-16T07:28:35;101213.97;;;25.94;60.64
250;BME280;109;19.806;-70.704;2022-10-16T07:31:03;101205.13;;;25.92;61.32
250;BME280;109;19.806;-70.704;2022-10-16T07:33:44;101198.81;;;25.93;61.13
250;BME280;109;19.806;-70.704;2022-10-16T07:36:19;101199.91;;;25.89;61.06
250;BME280;109;19.806;-70.704;2022-10-16T07:39:00;101206.44;;;25.84;61.02
250;BME280;109;19.806;-70.704;2022-10-16T07:41:27;101208.56;;;25.77;61.64
250;BME280;109;19.806;-70.704;2022-10-16T07:44:09;101205.41;;;25.69;61.75
250;BME280;109;19.806;-70.704;2022-10-16T07:46:35;101203.19;;;25.60;61.76
250;BME280;109;19.806;-70.704;2022-10-16T07:49:15;101216.75;;;25.57;62.27
250;BME280;109;19.806;-70.704;2022-10-16T07:51:41;101214.34;;;25.51;62.35
250;BME280;109;19.806;-70.704;2022-10-16T07:54:22;101204.69;;;25.48;62.08
250;BME280;109;19.806;-70.704;2022-10-16T07:56:48;101203.81;;;25.48;62.37
250;BME280;109;19.806;-70.704;2022-10-16T07:59:29;101210.19;;;25.45;62.17
250;BME280;109;19.806;-70.704;2022-10-16T08:01:55;101200.47;;;25.42;62.35
250;BME280;109;19.806;-70.704;2022-10-16T08:04:35;101204.09;;;25.41;62.31
250;BME280;109;19.806;-70.704;2022-10-16T08:07:09;101205.13;;;25.39;62.14
250;BME280;109;19.806;-70.704;2022-10-16T08:09:49;101198.28;;;25.33;62.19
250;BME280;109;19.806;-70.704;2022-10-16T08:12:17;101202.69;;;25.34;62.45
250;BME280;109;19.806;-70.704;2022-10-16T08:14:57;101199.34;;;25.29;62.62
250;BME280;109;19.806;-70.704;2022-10-16T08:17:23;101194.88;;;25.30;62.58
250;BME280;109;19.806;-70.704;2022-10-16T08:20:03;101188.75;;;25.26;62.37
250;BME280;109;19.806;-70.704;2022-10-16T08:22:30;101187.19;;;25.22;62.22
250;BME280;109;19.806;-70.704;2022-10-16T08:25:17;101193.41;;;25.23;62.25
250;BME280;109;19.806;-70.704;2022-10-16T08:27:56;101191.97;;;25.16;62.57
250;BME280;109;19.806;-70.704;2022-10-16T08:30:37;101192.41;;;25.06;62.92
250;BME280;109;19.806;-70.704;2022-10-16T08:33:17;101188.94;;;25.04;62.93
250;BME280;109;19.806;-70.704;2022-10-16T08:35:51;101181.97;;;25.00;62.75
250;BME280;109;19.806;-70.704;2022-10-16T08:38:38;101187.47;;;24.97;62.85
250;BME280;109;19.806;-70.704;2022-10-16T08:45:18;101175.94;;;24.97;62.65
250;BME280;109;19.806;-70.704;2022-10-16T08:47:25;101179.44;;;24.97;62.73
250;BME280;109;19.806;-70.704;2022-10-16T08:50:10;101178.81;;;24.92;63.03
250;BME280;109;19.806;-70.704;2022-10-16T08:52:45;101187.56;;;24.96;62.76
250;BME280;109;19.806;-70.704;2022-10-16T08:58:17;101177.78;;;24.76;63.01
250;BME280;109;19.806;-70.704;2022-10-16T09:00:54;101186.97;;;24.70;62.92
250;BME280;109;19.806;-70.704;2022-10-16T09:06:54;101193.31;;;24.68;63.08
250;BME280;109;19.806;-70.704;2022-10-16T09:09:56;101200.63;;;24.64;63.10
250;BME280;109;19.806;-70.704;2022-10-16T09:21:26;101214.06;;;24.63;62.79
250;BME280;109;19.806;-70.704;2022-10-16T09:24:19;101211.41;;;24.63;62.92
250;BME280;109;19.806;-70.704;2022-10-16T09:26:59;101197.28;;;24.59;63.06
250;BME280;109;19.806;-70.704;2022-10-16T09:29:39;101201.19;;;24.52;63.05
250;BME280;109;19.806;-70.704;2022-10-16T09:32:15;101195.03;;;24.50;63.05
250;BME280;109;19.806;-70.704;2022-10-16T09:34:57;101200.53;;;24.47;63.23
250;BME280;109;19.806;-70.704;2022-10-16T09:37:24;101193.72;;;24.40;63.29
250;BME280;109;19.806;-70.704;2022-10-16T09:40:35;101194.72;;;24.37;63.11
250;BME280;109;19.806;-70.704;2022-10-16T09:43:22;101203.75;;;24.35;63.15
250;BME280;109;19.806;-70.704;2022-10-16T09:46:08;101205.50;;;24.36;63.23
250;BME280;109;19.806;-70.704;2022-10-16T09:48:50;101210.84;;;24.36;63.22
250;BME280;109;19.806;-70.704;2022-10-16T09:51:31;101213.75;;;24.31;63.19
250;BME280;109;19.806;-70.704;2022-10-16T09:54:15;101203.91;;;24.32;63.45
250;BME280;109;19.806;-70.704;2022-10-16T09:56:50;101206.44;;;24.35;63.17
250;BME280;109;19.806;-70.704;2022-10-16T09:59:31;101198.41;;;24.35;63.06
250;BME280;109;19.806;-70.704;2022-10-16T10:02:02;101203.97;;;24.30;63.00
250;BME280;109;19.806;-70.704;2022-10-16T10:04:48;101202.44;;;24.25;63.22
250;BME280;109;19.806;-70.704;2022-10-16T10:07:27;101206.91;;;24.24;63.37
250;BME280;109;19.806;-70.704;2022-10-16T10:10:27;101211.47;;;24.22;63.17
250;BME280;109;19.806;-70.704;2022-10-16T10:13:27;101216.94;;;24.19;63.30
250;BME280;109;19.806;-70.704;2022-10-16T10:16:00;101220.34;;;24.23;63.32
250;BME280;109;19.806;-70.704;2022-10-16T10:18:41;101217.81;;;24.40;63.17
250;BME280;109;19.806;-70.704;2022-10-16T10:21:41;101221.47;;;24.37;62.89
250;BME280;109;19.806;-70.704;2022-10-16T10:24:29;101222.53;;;24.33;63.10
250;BME280;109;19.806;-70.704;2022-10-16T10:27:16;101220.97;;;24.29;63.20
250;BME280;109;19.806;-70.704;2022-10-16T10:30:15;101223.69;;;24.28;63.53
250;BME280;109;19.806;-70.704;2022-10-16T10:35:53;101223.47;;;24.32;63.10
250;BME280;109;19.806;-70.704;2022-10-16T10:46:50;101241.63;;;24.26;63.08
250;BME280;109;19.806;-70.704;2022-10-16T10:57:52;101235.97;;;24.52;62.38
250;BME280;109;19.806;-70.704;2022-10-16T11:00:35;101247.56;;;24.53;62.29
250;BME280;109;19.806;-70.704;2022-10-16T11:05:58;101246.63;;;24.54;62.29
250;BME280;109;19.806;-70.704;2022-10-16T11:08:36;101244.06;;;24.51;62.43
250;BME280;109;19.806;-70.704;2022-10-16T11:11:11;101245.88;;;24.50;62.73
250;BME280;109;19.806;-70.704;2022-10-16T11:14:08;101248.22;;;24.58;62.33
250;BME280;109;19.806;-70.704;2022-10-16T11:16:42;101251.47;;;24.64;62.66
250;BME280;109;19.806;-70.704;2022-10-16T11:24:57;101259.28;;;24.89;62.60
250;BME280;109;19.806;-70.704;2022-10-16T11:30:12;101264.59;;;25.09;62.25
250;BME280;109;19.806;-70.704;2022-10-16T11:38:29;101271.81;;;25.07;62.33
250;BME280;109;19.806;-70.704;2022-10-16T11:41:02;101274.25;;;25.12;62.19
250;BME280;109;19.806;-70.704;2022-10-16T11:43:43;101278.69;;;25.13;62.19
250;BME280;109;19.806;-70.704;2022-10-16T11:46:16;101290.13;;;25.17;62.34
250;BME280;109;19.806;-70.704;2022-10-16T11:48:50;101288.88;;;25.24;62.05
250;BME280;109;19.806;-70.704;2022-10-16T11:51:38;101295.03;;;25.26;61.78
250;BME280;109;19.806;-70.704;2022-10-16T11:54:20;101302.91;;;25.30;61.98
250;BME280;109;19.806;-70.704;2022-10-16T11:56:51;101297.97;;;25.40;61.63
250;BME280;109;19.806;-70.704;2022-10-16T12:02:25;101306.69;;;25.62;61.50
250;BME280;109;19.806;-70.704;2022-10-16T12:05:25;101308.63;;;25.77;61.30
250;BME280;109;19.806;-70.704;2022-10-16T12:08:13;101310.81;;;25.88;60.71
250;BME280;109;19.806;-70.704;2022-10-16T12:10:42;101315.47;;;26.02;60.33
250;BME280;109;19.806;-70.704;2022-10-16T12:13:28;101311.00;;;26.20;60.23
250;BME280;109;19.806;-70.704;2022-10-16T12:18:44;101306.50;;;26.55;59.45
250;BME280;109;19.806;-70.704;2022-10-16T12:21:12;101304.69;;;26.72;59.70
250;BME280;109;19.806;-70.704;2022-10-16T12:23:49;101311.28;;;26.82;58.46
250;BME280;109;19.806;-70.704;2022-10-16T12:26:39;101310.16;;;27.04;58.08
250;BME280;109;19.806;-70.704;2022-10-16T12:29:30;101304.13;;;27.16;58.37
250;BME280;109;19.806;-70.704;2022-10-16T12:31:58;101297.69;;;27.34;57.82
250;BME280;109;19.806;-70.704;2022-10-16T12:37:22;101304.53;;;27.24;56.26
250;BME280;109;19.806;-70.704;2022-10-16T12:39:51;101302.19;;;27.34;56.87
250;BME280;109;19.806;-70.704;2022-10-16T12:44:54;101313.69;;;27.53;56.97
250;BME280;109;19.806;-70.704;2022-10-16T12:47:23;101317.25;;;27.69;56.64
250;BME280;109;19.806;-70.704;2022-10-16T12:49:52;101315.91;;;27.76;55.80
250;BME280;109;19.806;-70.704;2022-10-16T12:55:00;101322.06;;;27.94;55.92
250;BME280;109;19.806;-70.704;2022-10-16T13:00:28;101318.00;;;27.71;56.34
250;BME280;109;19.806;-70.704;2022-10-16T13:11:35;101309.69;;;27.76;55.29
250;BME280;109;19.806;-70.704;2022-10-16T13:22:24;101316.34;;;28.00;55.14
250;BME280;109;19.806;-70.704;2022-10-16T13:28:10;101317.97;;;28.18;55.17
250;BME280;109;19.806;-70.704;2022-10-16T13:30:43;101325.84;;;28.21;55.93
250;BME280;109;19.806;-70.704;2022-10-16T13:33:14;101329.50;;;28.35;55.86
250;BME280;109;19.806;-70.704;2022-10-16T13:35:51;101328.81;;;28.17;55.01
250;BME280;109;19.806;-70.704;2022-10-16T13:38:26;101329.50;;;28.35;55.70
250;BME280;109;19.806;-70.704;2022-10-16T13:40:58;101324.34;;;28.32;55.16
250;BME280;109;19.806;-70.704;2022-10-16T13:43:33;101328.47;;;28.37;55.63
250;BME280;109;19.806;-70.704;2022-10-16T13:46:14;101319.94;;;28.45;54.56
250;BME280;109;19.806;-70.704;2022-10-16T13:48:41;101324.38;;;28.46;55.52
250;BME280;109;19.806;-70.704;2022-10-16T13:51:17;101323.00;;;28.39;55.49
250;BME280;109;19.806;-70.704;2022-10-16T13:53:45;101331.25;;;28.36;55.45
250;BME280;109;19.806;-70.704;2022-10-16T13:56:17;101331.81;;;28.26;55.36
250;BME280;109;19.806;-70.704;2022-10-16T13:58:44;101329.03;;;28.28;55.18
250;BME280;109;19.806;-70.704;2022-10-16T14:01:20;101334.50;;;28.26;55.41
250;BME280;109;19.806;-70.704;2022-10-16T14:03:50;101335.28;;;28.29;55.94
250;BME280;109;19.806;-70.704;2022-10-16T14:06:20;101335.56;;;28.54;55.46
250;BME280;109;19.806;-70.704;2022-10-16T14:09:05;101337.31;;;28.55;55.07
250;BME280;109;19.806;-70.704;2022-10-16T14:11:34;101333.28;;;28.76;55.79
250;BME280;109;19.806;-70.704;2022-10-16T14:14:04;101334.91;;;28.79;55.63
250;BME280;109;19.806;-70.704;2022-10-16T14:16:31;101328.09;;;28.87;55.24
250;BME280;109;19.806;-70.704;2022-10-16T14:19:04;101325.69;;;28.69;55.68
250;BME280;109;19.806;-70.704;2022-10-16T14:21:33;101311.81;;;28.75;55.24
250;BME280;109;19.806;-70.704;2022-10-16T14:24:11;101316.38;;;28.44;55.45
250;BME280;109;19.806;-70.704;2022-10-16T14:26:42;101316.25;;;28.47;54.75
250;BME280;109;19.806;-70.704;2022-10-16T14:29:19;101317.50;;;28.56;55.41
250;BME280;109;19.806;-70.704;2022-10-16T14:32:05;101309.88;;;28.48;55.47
250;BME280;109;19.806;-70.704;2022-10-16T14:34:36;101320.38;;;28.53;55.54
250;BME280;109;19.806;-70.704;2022-10-16T14:37:09;101313.75;;;28.73;55.49
250;BME280;109;19.806;-70.704;2022-10-16T14:39:41;101306.66;;;28.72;55.02
250;BME280;109;19.806;-70.704;2022-10-16T14:42:22;101304.81;;;28.72;54.17
250;BME280;109;19.806;-70.704;2022-10-16T14:44:52;101311.63;;;28.64;54.20
250;BME280;109;19.806;-70.704;2022-10-16T14:47:22;101304.28;;;28.51;54.47
250;BME280;109;19.806;-70.704;2022-10-16T14:49:53;101298.06;;;28.79;55.13
250;BME280;109;19.806;-70.704;2022-10-16T14:52:25;101297.59;;;28.73;54.75
250;BME280;109;19.806;-70.704;2022-10-16T14:54:51;101291.91;;;28.91;53.86
250;BME280;109;19.806;-70.704;2022-10-16T14:57:26;101294.69;;;28.90;53.63
250;BME280;109;19.806;-70.704;2022-10-16T14:59:54;101275.41;;;28.98;54.72
250;BME280;109;19.806;-70.704;2022-10-16T15:02:28;101269.22;;;29.10;54.98
250;BME280;109;19.806;-70.704;2022-10-16T15:04:56;101279.91;;;29.11;54.64
250;BME280;109;19.806;-70.704;2022-10-16T15:07:23;101274.28;;;29.14;55.04
250;BME280;109;19.806;-70.704;2022-10-16T15:09:50;101271.41;;;29.17;55.54
250;BME280;109;19.806;-70.704;2022-10-16T15:12:17;101269.94;;;29.26;55.84
250;BME280;109;19.806;-70.704;2022-10-16T15:14:43;101273.13;;;29.18;56.59
250;BME280;109;19.806;-70.704;2022-10-16T15:17:10;101268.81;;;29.16;56.91
250;BME280;109;19.806;-70.704;2022-10-16T15:19:37;101266.22;;;29.14;56.81
250;BME280;109;19.806;-70.704;2022-10-16T15:22:04;101264.22;;;29.04;57.00
250;BME280;109;19.806;-70.704;2022-10-16T15:24:30;101262.38;;;28.90;57.69
250;BME280;109;19.806;-70.704;2022-10-16T15:26:57;101254.38;;;28.46;58.26
250;BME280;109;19.806;-70.704;2022-10-16T15:29:23;101257.59;;;28.37;58.36
250;BME280;109;19.806;-70.704;2022-10-16T15:31:50;101251.84;;;28.29;59.49
250;BME280;109;19.806;-70.704;2022-10-16T15:34:16;101245.78;;;28.39;59.48
250;BME280;109;19.806;-70.704;2022-10-16T15:36:45;101243.69;;;28.44;59.41
250;BME280;109;19.806;-70.704;2022-10-16T15:39:17;101237.03;;;28.36;59.76
250;BME280;109;19.806;-70.704;2022-10-16T15:41:46;101230.91;;;28.34;59.58
250;BME280;109;19.806;-70.704;2022-10-16T15:44:17;101228.22;;;28.48;59.83